sensor_id;sensor_type;location;lat;lon;timestamp;temperature;humidity
42905;DHT22;28550;51.228;4.528;2023-05-10T00:01:23;14.10;99.90
42905;DHT22;28550;51.228;4.528;2023-05-10T00:03:49;14.10;99.90
42905;DHT22;28550;51.228;4.528;2023-05-10T00:06:15;14.10;99.90
42905;DHT22;28550;51.228;4.528;2023-05-10T00:08:41;14.00;99.90
42905;DHT22;28550;51.228;4.528;2023-05-10T00:11:06;14.00;99.90
42905;DHT22;28550;51.228;4.528;2023-05-10T00:13:32;13.90;99.90
42905;DHT22;28550;51.228;4.528;2023-05-10T00:15:58;13.90;99.90
42905;DHT22;28550;51.228;4.528;2023-05-10T00:18:24;13.90;99.90
42905;DHT22;28550;51.228;4.528;2023-05-10T00:20:49;13.90;99.90
42905;DHT22;28550;51.228;4.528;2023-05-10T00:23:15;13.90;99.90
42905;DHT22;28550;51.228;4.528;2023-05-10T00:25:41;14.00;99.90
42905;DHT22;28550;51.228;4.528;2023-05-10T00:28:07;13.90;99.90
42905;DHT22;28550;51.228;4.528;2023-05-10T00:30:32;13.90;99.90
42905;DHT22;28550;51.228;4.528;2023-05-10T00:32:58;14.00;99.90
42905;DHT22;28550;51.228;4.528;2023-05-10T00:35:26;14.00;99.90
42905;DHT22;28550;51.228;4.528;2023-05-10T00:37:52;13.90;99.90
42905;DHT22;28550;51.228;4.528;2023-05-10T00:40:17;13.80;99.90
42905;DHT22;28550;51.228;4.528;2023-05-10T00:42:43;13.80;99.90
42905;DHT22;28550;51.228;4.528;2023-05-10T00:45:09;13.80;99.90
42905;DHT22;28550;51.228;4.528;2023-05-10T00:47:35;13.90;99.90
42905;DHT22;28550;51.228;4.528;2023-05-10T00:50:01;13.90;99.90
42905;DHT22;28550;51.228;4.528;2023-05-10T00:52:28;13.90;99.90
42905;DHT22;28550;51.228;4.528;2023-05-10T00:54:55;13.90;99.90
42905;DHT22;28550;51.228;4.528;2023-05-10T00:57:24;13.90;99.90
42905;DHT22;28550;51.228;4.528;2023-05-10T00:59:50;13.80;99.90
42905;DHT22;28550;51.228;4.528;2023-05-10T01:02:16;13.80;99.90
42905;DHT22;28550;51.228;4.528;2023-05-10T01:04:46;13.80;99.90
42905;DHT22;28550;51.228;4.528;2023-05-10T01:07:12;13.80;99.90
42905;DHT22;28550;51.228;4.528;2023-05-10T01:09:38;13.80;99.90
42905;DHT22;28550;51.228;4.528;2023-05-10T01:12:04;13.70;99.90
42905;DHT22;28550;51.228;4.528;2023-05-10T01:14:32;13.80;99.90
42905;DHT22;28550;51.228;4.528;2023-05-10T01:16:59;13.70;99.90
42905;DHT22;28550;51.228;4.528;2023-05-10T01:19:28;13.60;99.90
42905;DHT22;28550;51.228;4.528;2023-05-10T01:25:02;13.70;99.90
42905;DHT22;28550;51.228;4.528;2023-05-10T01:31:03;13.70;99.90
42905;DHT22;28550;51.228;4.528;2023-05-10T01:36:27;13.70;99.90
42905;DHT22;28550;51.228;4.528;2023-05-10T01:41:44;13.70;99.90
42905;DHT22;28550;51.228;4.528;2023-05-10T01:44:18;13.80;99.90
42905;DHT22;28550;51.228;4.528;2023-05-10T01:46:51;13.80;99.90
42905;DHT22;28550;51.228;4.528;2023-05-10T01:49:32;13.90;99.90
42905;DHT22;28550;51.228;4.528;2023-05-10T01:52:06;13.80;99.90
42905;DHT22;28550;51.228;4.528;2023-05-10T01:54:33;13.80;99.90
42905;DHT22;28550;51.228;4.528;2023-05-10T01:57:05;13.80;99.90
42905;DHT22;28550;51.228;4.528;2023-05-10T01:59:34;13.80;99.90
42905;DHT22;28550;51.228;4.528;2023-05-10T02:02:07;13.80;99.90
42905;DHT22;28550;51.228;4.528;2023-05-10T02:04:38;13.70;99.90
42905;DHT22;28550;51.228;4.528;2023-05-10T02:07:17;13.70;99.90
42905;DHT22;28550;51.228;4.528;2023-05-10T02:12:19;13.70;99.90
42905;DHT22;28550;51.228;4.528;2023-05-10T02:14:46;13.70;99.90
42905;DHT22;28550;51.228;4.528;2023-05-10T02:17:13;13.70;99.90
42905;DHT22;28550;51.228;4.528;2023-05-10T02:19:41;13.80;99.90
42905;DHT22;28550;51.228;4.528;2023-05-10T02:22:09;13.70;99.90
42905;DHT22;28550;51.228;4.528;2023-05-10T02:24:36;13.70;99.90
42905;DHT22;28550;51.228;4.528;2023-05-10T02:27:06;13.70;99.90
42905;DHT22;28550;51.228;4.528;2023-05-10T02:29:32;13.60;99.90
42905;DHT22;28550;51.228;4.528;2023-05-10T02:31:59;13.60;99.90
42905;DHT22;28550;51.228;4.528;2023-05-10T02:34:26;13.60;99.90
42905;DHT22;28550;51.228;4.528;2023-05-10T02:36:54;13.60;99.90
42905;DHT22;28550;51.228;4.528;2023-05-10T02:39:21;13.60;99.90
42905;DHT22;28550;51.228;4.528;2023-05-10T02:41:52;13.60;99.90
42905;DHT22;28550;51.228;4.528;2023-05-10T02:44:19;13.60;99.90
42905;DHT22;28550;51.228;4.528;2023-05-10T02:46:46;13.60;99.90
42905;DHT22;28550;51.228;4.528;2023-05-10T02:49:13;13.70;99.90
42905;DHT22;28550;51.228;4.528;2023-05-10T02:51:43;13.70;99.90
42905;DHT22;28550;51.228;4.528;2023-05-10T02:54:15;13.70;99.90
42905;DHT22;28550;51.228;4.528;2023-05-10T02:56:53;13.70;99.90
42905;DHT22;28550;51.228;4.528;2023-05-10T02:59:22;13.60;99.90
42905;DHT22;28550;51.228;4.528;2023-05-10T03:01:50;13.50;99.90
42905;DHT22;28550;51.228;4.528;2023-05-10T03:04:16;13.50;99.90
42905;DHT22;28550;51.228;4.528;2023-05-10T03:06:42;13.50;99.90
42905;DHT22;28550;51.228;4.528;2023-05-10T03:09:08;13.50;99.90
42905;DHT22;28550;51.228;4.528;2023-05-10T03:20:10;13.60;99.90
42905;DHT22;28550;51.228;4.528;2023-05-10T03:23:46;13.50;99.90
42905;DHT22;28550;51.228;4.528;2023-05-10T03:25:52;13.40;99.90
42905;DHT22;28550;51.228;4.528;2023-05-10T03:28:20;13.40;99.90
42905;DHT22;28550;51.228;4.528;2023-05-10T03:30:47;13.30;99.90
42905;DHT22;28550;51.228;4.528;2023-05-10T03:33:13;13.20;99.90
42905;DHT22;28550;51.228;4.528;2023-05-10T03:35:39;13.20;99.90
42905;DHT22;28550;51.228;4.528;2023-05-10T03:38:05;13.30;99.90
42905;DHT22;28550;51.228;4.528;2023-05-10T03:40:34;13.30;99.90
42905;DHT22;28550;51.228;4.528;2023-05-10T03:43:12;13.40;99.90
42905;DHT22;28550;51.228;4.528;2023-05-10T03:45:47;13.30;99.90
42905;DHT22;28550;51.228;4.528;2023-05-10T03:48:12;13.30;99.90
42905;DHT22;28550;51.228;4.528;2023-05-10T03:50:39;13.30;99.90
42905;DHT22;28550;51.228;4.528;2023-05-10T03:53:04;13.20;99.90
42905;DHT22;28550;51.228;4.528;2023-05-10T03:55:30;13.10;99.90
42905;DHT22;28550;51.228;4.528;2023-05-10T03:57:59;13.10;99.90
42905;DHT22;28550;51.228;4.528;2023-05-10T04:00:31;13.10;99.90
42905;DHT22;28550;51.228;4.528;2023-05-10T04:02:58;13.10;99.90
42905;DHT22;28550;51.228;4.528;2023-05-10T04:05:23;13.20;99.90
42905;DHT22;28550;51.228;4.528;2023-05-10T04:07:49;13.20;99.90
42905;DHT22;28550;51.228;4.528;2023-05-10T04:10:16;13.20;99.90
42905;DHT22;28550;51.228;4.528;2023-05-10T04:12:42;13.20;99.90
42905;DHT22;28550;51.228;4.528;2023-05-10T04:15:08;13.20;99.90
42905;DHT22;28550;51.228;4.528;2023-05-10T04:17:44;13.20;99.90
42905;DHT22;28550;51.228;4.528;2023-05-10T04:22:38;13.20;99.90
42905;DHT22;28550;51.228;4.528;2023-05-10T04:25:04;13.30;99.90
42905;DHT22;28550;51.228;4.528;2023-05-10T04:27:31;13.30;99.90
42905;DHT22;28550;51.228;4.528;2023-05-10T04:30:09;13.30;99.90
42905;DHT22;28550;51.228;4.528;2023-05-10T04:32:49;13.30;99.90
42905;DHT22;28550;51.228;4.528;2023-05-10T04:35:17;13.40;99.90
42905;DHT22;28550;51.228;4.528;2023-05-10T04:37:43;13.40;99.90
42905;DHT22;28550;51.228;4.528;2023-05-10T04:40:12;13.30;99.90
42905;DHT22;28550;51.228;4.528;2023-05-10T04:42:40;13.20;99.90
42905;DHT22;28550;51.228;4.528;2023-05-10T04:45:07;13.40;99.90
42905;DHT22;28550;51.228;4.528;2023-05-10T04:47:33;13.40;99.90
42905;DHT22;28550;51.228;4.528;2023-05-10T04:49:58;13.40;99.90
42905;DHT22;28550;51.228;4.528;2023-05-10T04:55:43;13.50;99.90
42905;DHT22;28550;51.228;4.528;2023-05-10T04:58:09;13.50;99.90
42905;DHT22;28550;51.228;4.528;2023-05-10T05:00:34;13.50;99.90
42905;DHT22;28550;51.228;4.528;2023-05-10T05:03:00;13.50;99.90
42905;DHT22;28550;51.228;4.528;2023-05-10T05:05:32;13.60;99.90
42905;DHT22;28550;51.228;4.528;2023-05-10T05:07:58;13.60;99.90
42905;DHT22;28550;51.228;4.528;2023-05-10T05:10:29;13.70;99.90
42905;DHT22;28550;51.228;4.528;2023-05-10T05:12:55;13.70;99.90
42905;DHT22;28550;51.228;4.528;2023-05-10T05:23:48;13.80;99.90
42905;DHT22;28550;51.228;4.528;2023-05-10T05:26:13;13.80;99.90
42905;DHT22;28550;51.228;4.528;2023-05-10T05:28:43;13.80;99.90
42905;DHT22;28550;51.228;4.528;2023-05-10T05:31:12;13.80;99.90
42905;DHT22;28550;51.228;4.528;2023-05-10T05:33:37;13.80;99.90
42905;DHT22;28550;51.228;4.528;2023-05-10T05:36:04;13.70;99.90
42905;DHT22;28550;51.228;4.528;2023-05-10T05:38:34;13.70;99.90
42905;DHT22;28550;51.228;4.528;2023-05-10T05:41:00;13.70;99.90
42905;DHT22;28550;51.228;4.528;2023-05-10T05:43:28;13.70;99.90
42905;DHT22;28550;51.228;4.528;2023-05-10T05:45:54;13.90;99.90
42905;DHT22;28550;51.228;4.528;2023-05-10T05:48:23;14.00;99.90
42905;DHT22;28550;51.228;4.528;2023-05-10T05:50:56;14.00;99.90
42905;DHT22;28550;51.228;4.528;2023-05-10T05:53:22;14.00;99.90
42905;DHT22;28550;51.228;4.528;2023-05-10T05:56:15;14.20;99.90
42905;DHT22;28550;51.228;4.528;2023-05-10T05:58:56;14.30;99.80
42905;DHT22;28550;51.228;4.528;2023-05-10T06:01:28;14.30;99.90
42905;DHT22;28550;51.228;4.528;2023-05-10T06:03:53;14.20;99.90
42905;DHT22;28550;51.228;4.528;2023-05-10T06:06:19;14.30;99.60
42905;DHT22;28550;51.228;4.528;2023-05-10T06:08:49;14.40;96.30
42905;DHT22;28550;51.228;4.528;2023-05-10T06:11:15;14.50;98.10
42905;DHT22;28550;51.228;4.528;2023-05-10T06:13:48;14.60;97.20
42905;DHT22;28550;51.228;4.528;2023-05-10T06:22:34;14.90;92.20
42905;DHT22;28550;51.228;4.528;2023-05-10T06:25:14;14.90;91.00
42905;DHT22;28550;51.228;4.528;2023-05-10T06:27:43;14.90;82.00
42905;DHT22;28550;51.228;4.528;2023-05-10T06:30:25;15.00;82.70
42905;DHT22;28550;51.228;4.528;2023-05-10T06:33:01;15.00;85.70
42905;DHT22;28550;51.228;4.528;2023-05-10T06:35:29;14.90;89.20
42905;DHT22;28550;51.228;4.528;2023-05-10T06:37:56;14.90;84.00
42905;DHT22;28550;51.228;4.528;2023-05-10T06:40:30;14.90;86.80
42905;DHT22;28550;51.228;4.528;2023-05-10T06:42:56;15.00;82.20
42905;DHT22;28550;51.228;4.528;2023-05-10T06:45:24;15.00;80.30
42905;DHT22;28550;51.228;4.528;2023-05-10T06:47:58;14.80;87.70
42905;DHT22;28550;51.228;4.528;2023-05-10T06:50:24;14.80;90.90
42905;DHT22;28550;51.228;4.528;2023-05-10T06:52:50;14.80;83.20
42905;DHT22;28550;51.228;4.528;2023-05-10T06:55:35;14.80;77.50
42905;DHT22;28550;51.228;4.528;2023-05-10T06:58:25;14.70;75.50
42905;DHT22;28550;51.228;4.528;2023-05-10T07:00:53;14.70;89.50
42905;DHT22;28550;51.228;4.528;2023-05-10T07:03:19;14.70;84.40
42905;DHT22;28550;51.228;4.528;2023-05-10T07:06:04;14.70;90.60
42905;DHT22;28550;51.228;4.528;2023-05-10T07:08:50;14.60;90.80
42905;DHT22;28550;51.228;4.528;2023-05-10T07:11:18;14.60;85.30
42905;DHT22;28550;51.228;4.528;2023-05-10T07:13:49;14.50;87.70
42905;DHT22;28550;51.228;4.528;2023-05-10T07:16:16;14.50;90.20
42905;DHT22;28550;51.228;4.528;2023-05-10T07:18:45;14.50;93.40
42905;DHT22;28550;51.228;4.528;2023-05-10T07:21:23;14.60;93.50
42905;DHT22;28550;51.228;4.528;2023-05-10T07:23:54;14.80;90.00
42905;DHT22;28550;51.228;4.528;2023-05-10T07:26:28;14.90;84.20
42905;DHT22;28550;51.228;4.528;2023-05-10T07:29:01;15.00;73.10
42905;DHT22;28550;51.228;4.528;2023-05-10T07:31:33;15.00;73.00
42905;DHT22;28550;51.228;4.528;2023-05-10T07:33:59;14.90;66.60
42905;DHT22;28550;51.228;4.528;2023-05-10T07:36:26;14.90;59.90
42905;DHT22;28550;51.228;4.528;2023-05-10T07:38:52;14.80;73.50
42905;DHT22;28550;51.228;4.528;2023-05-10T07:41:28;14.80;72.30
42905;DHT22;28550;51.228;4.528;2023-05-10T07:43:54;14.80;84.60
42905;DHT22;28550;51.228;4.528;2023-05-10T07:46:36;14.80;80.00
42905;DHT22;28550;51.228;4.528;2023-05-10T07:49:01;15.00;74.20
42905;DHT22;28550;51.228;4.528;2023-05-10T07:51:29;15.20;76.40
42905;DHT22;28550;51.228;4.528;2023-05-10T07:53:58;15.30;65.50
42905;DHT22;28550;51.228;4.528;2023-05-10T07:56:29;15.50;43.10
42905;DHT22;28550;51.228;4.528;2023-05-10T07:59:14;15.50;31.90
42905;DHT22;28550;51.228;4.528;2023-05-10T08:01:40;15.70;48.00
42905;DHT22;28550;51.228;4.528;2023-05-10T08:04:06;16.40;58.00
42905;DHT22;28550;51.228;4.528;2023-05-10T08:09:20;18.90;1.00
42905;DHT22;28550;51.228;4.528;2023-05-10T08:11:50;19.80;1.00
42905;DHT22;28550;51.228;4.528;2023-05-10T08:14:16;20.40;1.00
42905;DHT22;28550;51.228;4.528;2023-05-10T08:16:48;21.30;99.90
42905;DHT22;28550;51.228;4.528;2023-05-10T08:19:14;22.30;99.90
42905;DHT22;28550;51.228;4.528;2023-05-10T08:21:52;22.90;99.90
42905;DHT22;28550;51.228;4.528;2023-05-10T08:24:28;22.70;99.90
42905;DHT22;28550;51.228;4.528;2023-05-10T08:26:54;22.40;99.90
42905;DHT22;28550;51.228;4.528;2023-05-10T08:29:23;21.80;13.10
42905;DHT22;28550;51.228;4.528;2023-05-10T08:32:02;21.20;50.20
42905;DHT22;28550;51.228;4.528;2023-05-10T08:34:43;20.50;1.00
42905;DHT22;28550;51.228;4.528;2023-05-10T08:47:37;18.80;99.90
42905;DHT22;28550;51.228;4.528;2023-05-10T08:50:10;19.50;1.00
42905;DHT22;28550;51.228;4.528;2023-05-10T08:52:38;19.70;39.30
42905;DHT22;28550;51.228;4.528;2023-05-10T08:55:05;19.50;1.00
42905;DHT22;28550;51.228;4.528;2023-05-10T08:57:32;19.50;1.00
42905;DHT22;28550;51.228;4.528;2023-05-10T09:00:16;20.20;99.90
42905;DHT22;28550;51.228;4.528;2023-05-10T09:05:12;21.40;99.90
42905;DHT22;28550;51.228;4.528;2023-05-10T09:10:21;21.00;99.90
42905;DHT22;28550;51.228;4.528;2023-05-10T09:15:33;21.00;99.90
42905;DHT22;28550;51.228;4.528;2023-05-10T09:26:57;20.90;99.90
42905;DHT22;28550;51.228;4.528;2023-05-10T09:29:23;20.10;99.90
42905;DHT22;28550;51.228;4.528;2023-05-10T09:32:14;19.50;1.00
42905;DHT22;28550;51.228;4.528;2023-05-10T09:34:40;19.10;99.90
42905;DHT22;28550;51.228;4.528;2023-05-10T09:37:16;19.00;1.00
42905;DHT22;28550;51.228;4.528;2023-05-10T09:39:42;19.40;99.90
42905;DHT22;28550;51.228;4.528;2023-05-10T09:42:09;19.70;1.00
42905;DHT22;28550;51.228;4.528;2023-05-10T09:44:38;20.30;1.00
42905;DHT22;28550;51.228;4.528;2023-05-10T09:47:06;20.60;1.00
42905;DHT22;28550;51.228;4.528;2023-05-10T09:49:32;21.00;99.90
42905;DHT22;28550;51.228;4.528;2023-05-10T09:52:20;21.10;99.90
42905;DHT22;28550;51.228;4.528;2023-05-10T09:55:00;20.60;28.20
42905;DHT22;28550;51.228;4.528;2023-05-10T09:57:26;19.80;1.00
42905;DHT22;28550;51.228;4.528;2023-05-10T09:59:55;19.40;1.00
42905;DHT22;28550;51.228;4.528;2023-05-10T10:02:28;19.30;1.00
42905;DHT22;28550;51.228;4.528;2023-05-10T10:04:55;19.30;93.20
42905;DHT22;28550;51.228;4.528;2023-05-10T10:07:24;19.60;1.00
42905;DHT22;28550;51.228;4.528;2023-05-10T10:10:12;19.50;1.00
42905;DHT22;28550;51.228;4.528;2023-05-10T10:12:39;19.80;18.90
42905;DHT22;28550;51.228;4.528;2023-05-10T10:15:11;20.30;1.00
42905;DHT22;28550;51.228;4.528;2023-05-10T10:17:41;20.40;1.00
42905;DHT22;28550;51.228;4.528;2023-05-10T10:20:09;20.00;1.00
42905;DHT22;28550;51.228;4.528;2023-05-10T10:22:36;19.50;1.00
42905;DHT22;28550;51.228;4.528;2023-05-10T10:25:11;18.90;99.90
42905;DHT22;28550;51.228;4.528;2023-05-10T10:28:02;18.80;11.50
42905;DHT22;28550;51.228;4.528;2023-05-10T10:36:10;18.90;1.00
42905;DHT22;28550;51.228;4.528;2023-05-10T10:38:59;18.60;1.00
42905;DHT22;28550;51.228;4.528;2023-05-10T10:49:52;17.10;1.00
42905;DHT22;28550;51.228;4.528;2023-05-10T10:52:52;16.80;93.70
42905;DHT22;28550;51.228;4.528;2023-05-10T10:55:20;16.70;99.90
42905;DHT22;28550;51.228;4.528;2023-05-10T10:57:56;16.80;1.00
42905;DHT22;28550;51.228;4.528;2023-05-10T11:00:33;17.00;56.40
42905;DHT22;28550;51.228;4.528;2023-05-10T11:03:15;17.40;1.00
42905;DHT22;28550;51.228;4.528;2023-05-10T11:05:57;17.80;99.90
42905;DHT22;28550;51.228;4.528;2023-05-10T11:08:44;18.20;99.90
42905;DHT22;28550;51.228;4.528;2023-05-10T11:11:20;18.50;98.70
42905;DHT22;28550;51.228;4.528;2023-05-10T11:13:47;18.80;99.90
42905;DHT22;28550;51.228;4.528;2023-05-10T11:16:23;18.50;1.00
42905;DHT22;28550;51.228;4.528;2023-05-10T11:19:04;18.10;1.00
42905;DHT22;28550;51.228;4.528;2023-05-10T11:21:32;17.70;99.90
42905;DHT22;28550;51.228;4.528;2023-05-10T11:24:08;17.40;99.90
42905;DHT22;28550;51.228;4.528;2023-05-10T11:26:56;17.10;1.00
42905;DHT22;28550;51.228;4.528;2023-05-10T11:29:22;16.70;99.90
42905;DHT22;28550;51.228;4.528;2023-05-10T11:31:48;16.50;1.00
42905;DHT22;28550;51.228;4.528;2023-05-10T11:34:31;16.30;99.90
42905;DHT22;28550;51.228;4.528;2023-05-10T11:37:09;16.30;1.00
42905;DHT22;28550;51.228;4.528;2023-05-10T11:39:46;16.30;1.00
42905;DHT22;28550;51.228;4.528;2023-05-10T11:42:15;16.50;1.00
42905;DHT22;28550;51.228;4.528;2023-05-10T11:44:45;16.40;1.00
42905;DHT22;28550;51.228;4.528;2023-05-10T11:47:15;16.30;1.00
42905;DHT22;28550;51.228;4.528;2023-05-10T11:49:44;16.10;1.00
42905;DHT22;28550;51.228;4.528;2023-05-10T11:52:10;16.20;1.00
42905;DHT22;28550;51.228;4.528;2023-05-10T11:55:05;16.00;5.00
42905;DHT22;28550;51.228;4.528;2023-05-10T11:57:31;16.00;37.30
42905;DHT22;28550;51.228;4.528;2023-05-10T11:59:57;15.90;40.10
42905;DHT22;28550;51.228;4.528;2023-05-10T12:05:41;15.70;56.20
42905;DHT22;28550;51.228;4.528;2023-05-10T12:08:25;15.60;65.60
42905;DHT22;28550;51.228;4.528;2023-05-10T12:11:03;15.50;61.00
42905;DHT22;28550;51.228;4.528;2023-05-10T12:19:22;15.20;88.40
42905;DHT22;28550;51.228;4.528;2023-05-10T12:39:52;15.20;94.70
42905;DHT22;28550;51.228;4.528;2023-05-10T13:00:28;16.30;58.80
42905;DHT22;28550;51.228;4.528;2023-05-10T13:03:38;16.40;14.40
42905;DHT22;28550;51.228;4.528;2023-05-10T13:09:33;16.50;1.00
42905;DHT22;28550;51.228;4.528;2023-05-10T15:16:36;17.30;40.90
42905;DHT22;28550;51.228;4.528;2023-05-10T16:46:28;15.50;94.20
42905;DHT22;28550;51.228;4.528;2023-05-10T16:49:38;15.60;96.10
42905;DHT22;28550;51.228;4.528;2023-05-10T16:52:11;15.70;98.20
42905;DHT22;28550;51.228;4.528;2023-05-10T16:57:14;15.80;91.00
42905;DHT22;28550;51.228;4.528;2023-05-10T16:59:42;15.90;91.70
42905;DHT22;28550;51.228;4.528;2023-05-10T17:02:52;15.80;77.60
42905;DHT22;28550;51.228;4.528;2023-05-10T17:09:07;15.60;89.20
42905;DHT22;28550;51.228;4.528;2023-05-10T17:11:54;15.50;91.80
42905;DHT22;28550;51.228;4.528;2023-05-10T17:18:16;15.50;93.10
42905;DHT22;28550;51.228;4.528;2023-05-10T17:20:43;15.50;92.00
42905;DHT22;28550;51.228;4.528;2023-05-10T17:23:42;15.60;91.60
42905;DHT22;28550;51.228;4.528;2023-05-10T17:26:45;15.60;95.40
42905;DHT22;28550;51.228;4.528;2023-05-10T17:29:22;15.60;98.60
42905;DHT22;28550;51.228;4.528;2023-05-10T17:31:52;15.60;97.20
42905;DHT22;28550;51.228;4.528;2023-05-10T17:34:18;15.70;91.40
42905;DHT22;28550;51.228;4.528;2023-05-10T17:36:56;15.70;94.80
42905;DHT22;28550;51.228;4.528;2023-05-10T17:39:22;15.70;92.40
42905;DHT22;28550;51.228;4.528;2023-05-10T17:41:49;15.70;90.90
42905;DHT22;28550;51.228;4.528;2023-05-10T17:44:37;15.60;92.10
42905;DHT22;28550;51.228;4.528;2023-05-10T17:48:24;15.70;95.00
42905;DHT22;28550;51.228;4.528;2023-05-10T17:51:15;15.80;84.40
42905;DHT22;28550;51.228;4.528;2023-05-10T17:54:52;15.60;92.40
42905;DHT22;28550;51.228;4.528;2023-05-10T18:00:30;15.40;97.30
42905;DHT22;28550;51.228;4.528;2023-05-10T18:02:57;15.40;96.40
42905;DHT22;28550;51.228;4.528;2023-05-10T18:05:24;15.30;96.70
42905;DHT22;28550;51.228;4.528;2023-05-10T18:07:59;15.40;98.50
42905;DHT22;28550;51.228;4.528;2023-05-10T18:10:32;15.50;97.00
42905;DHT22;28550;51.228;4.528;2023-05-10T18:12:59;15.50;96.50
42905;DHT22;28550;51.228;4.528;2023-05-10T18:16:25;15.50;97.90
42905;DHT22;28550;51.228;4.528;2023-05-10T18:19:04;15.60;92.50
42905;DHT22;28550;51.228;4.528;2023-05-10T18:21:32;15.40;94.50
42905;DHT22;28550;51.228;4.528;2023-05-10T18:30:26;15.00;96.50
42905;DHT22;28550;51.228;4.528;2023-05-10T18:36:19;14.90;99.00
42905;DHT22;28550;51.228;4.528;2023-05-10T18:38:48;14.90;97.80
42905;DHT22;28550;51.228;4.528;2023-05-10T18:41:14;14.80;96.70
42905;DHT22;28550;51.228;4.528;2023-05-10T18:46:48;14.60;99.90
42905;DHT22;28550;51.228;4.528;2023-05-10T18:49:18;14.50;99.90
42905;DHT22;28550;51.228;4.528;2023-05-10T18:55:03;14.40;99.90
42905;DHT22;28550;51.228;4.528;2023-05-10T18:57:36;14.30;99.90
42905;DHT22;28550;51.228;4.528;2023-05-10T19:00:50;14.30;99.90
42905;DHT22;28550;51.228;4.528;2023-05-10T19:03:34;14.30;99.90
42905;DHT22;28550;51.228;4.528;2023-05-10T19:06:05;14.30;99.90
42905;DHT22;28550;51.228;4.528;2023-05-10T19:08:55;14.20;99.90
42905;DHT22;28550;51.228;4.528;2023-05-10T19:15:07;14.20;99.90
42905;DHT22;28550;51.228;4.528;2023-05-10T19:20:35;14.10;99.90
42905;DHT22;28550;51.228;4.528;2023-05-10T19:23:26;14.20;99.90
42905;DHT22;28550;51.228;4.528;2023-05-10T19:26:16;14.10;99.90
42905;DHT22;28550;51.228;4.528;2023-05-10T19:29:17;14.10;99.90
42905;DHT22;28550;51.228;4.528;2023-05-10T19:31:43;14.00;99.90
42905;DHT22;28550;51.228;4.528;2023-05-10T19:37:36;14.10;99.90
42905;DHT22;28550;51.228;4.528;2023-05-10T19:43:35;14.20;99.90
42905;DHT22;28550;51.228;4.528;2023-05-10T19:46:26;14.20;99.90
42905;DHT22;28550;51.228;4.528;2023-05-10T19:48:51;14.20;99.90
42905;DHT22;28550;51.228;4.528;2023-05-10T19:51:20;14.10;99.90
42905;DHT22;28550;51.228;4.528;2023-05-10T19:53:46;14.20;99.90
42905;DHT22;28550;51.228;4.528;2023-05-10T19:56:46;14.30;99.90
42905;DHT22;28550;51.228;4.528;2023-05-10T19:59:23;14.30;99.90
42905;DHT22;28550;51.228;4.528;2023-05-10T20:01:58;14.30;99.90
42905;DHT22;28550;51.228;4.528;2023-05-10T20:04:25;14.40;99.90
42905;DHT22;28550;51.228;4.528;2023-05-10T20:07:03;14.30;99.90
42905;DHT22;28550;51.228;4.528;2023-05-10T20:13:26;14.30;99.90
42905;DHT22;28550;51.228;4.528;2023-05-10T20:15:56;14.30;99.90
42905;DHT22;28550;51.228;4.528;2023-05-10T20:18:32;14.30;99.90
42905;DHT22;28550;51.228;4.528;2023-05-10T20:21:31;14.30;99.90
42905;DHT22;28550;51.228;4.528;2023-05-10T20:24:48;14.40;99.90
42905;DHT22;28550;51.228;4.528;2023-05-10T20:30:52;14.30;99.90
42905;DHT22;28550;51.228;4.528;2023-05-10T20:39:26;14.20;99.90
42905;DHT22;28550;51.228;4.528;2023-05-10T20:41:56;14.20;99.90
42905;DHT22;28550;51.228;4.528;2023-05-10T20:44:32;14.20;99.90
42905;DHT22;28550;51.228;4.528;2023-05-10T20:46:58;14.30;99.90
42905;DHT22;28550;51.228;4.528;2023-05-10T20:49:30;14.30;99.90
42905;DHT22;28550;51.228;4.528;2023-05-10T20:52:26;14.40;99.90
42905;DHT22;28550;51.228;4.528;2023-05-10T20:55:01;14.40;99.90
42905;DHT22;28550;51.228;4.528;2023-05-10T21:07:09;14.30;99.90
42905;DHT22;28550;51.228;4.528;2023-05-10T21:29:32;14.00;99.90
42905;DHT22;28550;51.228;4.528;2023-05-10T21:54:24;13.90;99.90
42905;DHT22;28550;51.228;4.528;2023-05-10T22:03:50;13.70;99.90
42905;DHT22;28550;51.228;4.528;2023-05-10T22:07:03;13.60;99.90
42905;DHT22;28550;51.228;4.528;2023-05-10T22:18:33;13.40;99.90
42905;DHT22;28550;51.228;4.528;2023-05-10T22:56:10;13.40;99.90
42905;DHT22;28550;51.228;4.528;2023-05-10T22:59:26;13.40;99.90
42905;DHT22;28550;51.228;4.528;2023-05-10T23:09:32;13.40;99.90
42905;DHT22;28550;51.228;4.528;2023-05-10T23:12:14;13.40;99.90
42905;DHT22;28550;51.228;4.528;2023-05-10T23:30:23;13.40;99.90
42905;DHT22;28550;51.228;4.528;2023-05-10T23:37:06;13.40;99.90
42905;DHT22;28550;51.228;4.528;2023-05-10T23:45:32;13.40;99.90
42905;DHT22;28550;51.228;4.528;2023-05-10T23:47:59;13.30;99.90
42905;DHT22;28550;51.228;4.528;2023-05-10T23:53:50;13.20;99.90
